sensor_id;sensor_type;location;lat;lon;timestamp;P1;durP1;ratioP1;P2;durP2;ratioP2
42092;SDS011;28974;50.316;18.960;2023-07-20T00:10:00;12.65;;;6.00;;
42092;SDS011;28974;50.316;18.960;2023-07-20T00:22:00;15.40;;;5.47;;
42092;SDS011;28974;50.316;18.960;2023-07-20T00:34:01;15.85;;;6.18;;
42092;SDS011;28974;50.316;18.960;2023-07-20T00:46:02;11.20;;;5.03;;
42092;SDS011;28974;50.316;18.960;2023-07-20T00:58:03;15.93;;;4.97;;
42092;SDS011;28974;50.316;18.960;2023-07-20T01:35:06;11.98;;;5.18;;
42092;SDS011;28974;50.316;18.960;2023-07-20T01:47:08;15.63;;;5.90;;
42092;SDS011;28974;50.316;18.960;2023-07-20T01:59:13;10.57;;;5.68;;
42092;SDS011;28974;50.316;18.960;2023-07-20T02:11:14;16.48;;;7.03;;
42092;SDS011;28974;50.316;18.960;2023-07-20T02:23:14;22.10;;;9.38;;
42092;SDS011;28974;50.316;18.960;2023-07-20T02:35:15;16.40;;;6.90;;
42092;SDS011;28974;50.316;18.960;2023-07-20T02:47:16;15.45;;;4.97;;
42092;SDS011;28974;50.316;18.960;2023-07-20T02:59:16;6.82;;;4.43;;
42092;SDS011;28974;50.316;18.960;2023-07-20T03:11:16;8.63;;;4.70;;
42092;SDS011;28974;50.316;18.960;2023-07-20T03:23:17;10.68;;;4.03;;
42092;SDS011;28974;50.316;18.960;2023-07-20T03:35:17;12.30;;;5.18;;
42092;SDS011;28974;50.316;18.960;2023-07-20T03:47:18;10.10;;;4.35;;
42092;SDS011;28974;50.316;18.960;2023-07-20T03:59:19;9.27;;;5.07;;
42092;SDS011;28974;50.316;18.960;2023-07-20T04:11:20;10.70;;;3.90;;
42092;SDS011;28974;50.316;18.960;2023-07-20T04:23:20;13.85;;;4.85;;
42092;SDS011;28974;50.316;18.960;2023-07-20T04:47:42;17.85;;;5.25;;
42092;SDS011;28974;50.316;18.960;2023-07-20T04:59:47;22.13;;;4.57;;
42092;SDS011;28974;50.316;18.960;2023-07-20T05:11:48;13.50;;;4.60;;
42092;SDS011;28974;50.316;18.960;2023-07-20T05:23:49;13.23;;;4.55;;
42092;SDS011;28974;50.316;18.960;2023-07-20T05:35:50;15.90;;;7.25;;
42092;SDS011;28974;50.316;18.960;2023-07-20T05:47:50;24.30;;;7.38;;
42092;SDS011;28974;50.316;18.960;2023-07-20T05:59:50;23.73;;;8.07;;
42092;SDS011;28974;50.316;18.960;2023-07-20T06:11:51;17.95;;;6.55;;
42092;SDS011;28974;50.316;18.960;2023-07-20T06:23:51;13.27;;;4.85;;
42092;SDS011;28974;50.316;18.960;2023-07-20T06:35:52;11.80;;;4.85;;
42092;SDS011;28974;50.316;18.960;2023-07-20T06:47:53;11.77;;;3.60;;
42092;SDS011;28974;50.316;18.960;2023-07-20T06:59:53;38.05;;;4.32;;
42092;SDS011;28974;50.316;18.960;2023-07-20T07:11:53;5.93;;;1.95;;
42092;SDS011;28974;50.316;18.960;2023-07-20T07:23:54;4.90;;;2.13;;
42092;SDS011;28974;50.316;18.960;2023-07-20T07:36:01;2.87;;;2.03;;
42092;SDS011;28974;50.316;18.960;2023-07-20T07:48:01;9.05;;;1.90;;
42092;SDS011;28974;50.316;18.960;2023-07-20T08:00:02;8.40;;;2.88;;
42092;SDS011;28974;50.316;18.960;2023-07-20T08:12:05;6.68;;;3.33;;
42092;SDS011;28974;50.316;18.960;2023-07-20T08:24:05;12.35;;;4.75;;
42092;SDS011;28974;50.316;18.960;2023-07-20T08:36:06;10.80;;;5.15;;
42092;SDS011;28974;50.316;18.960;2023-07-20T08:48:10;15.68;;;9.10;;
42092;SDS011;28974;50.316;18.960;2023-07-20T09:00:11;12.73;;;7.90;;
42092;SDS011;28974;50.316;18.960;2023-07-20T09:12:14;13.82;;;7.80;;
42092;SDS011;28974;50.316;18.960;2023-07-20T09:24:15;10.57;;;7.38;;
42092;SDS011;28974;50.316;18.960;2023-07-20T09:36:16;18.90;;;8.15;;
42092;SDS011;28974;50.316;18.960;2023-07-20T09:48:16;18.85;;;11.18;;
42092;SDS011;28974;50.316;18.960;2023-07-20T10:00:17;18.02;;;11.35;;
42092;SDS011;28974;50.316;18.960;2023-07-20T10:12:19;16.08;;;8.48;;
42092;SDS011;28974;50.316;18.960;2023-07-20T10:24:19;14.03;;;6.20;;
42092;SDS011;28974;50.316;18.960;2023-07-20T10:36:26;9.77;;;5.00;;
42092;SDS011;28974;50.316;18.960;2023-07-20T10:48:29;9.40;;;3.30;;
42092;SDS011;28974;50.316;18.960;2023-07-20T11:00:29;8.02;;;3.47;;
42092;SDS011;28974;50.316;18.960;2023-07-20T11:12:30;17.95;;;2.78;;
42092;SDS011;28974;50.316;18.960;2023-07-20T11:24:30;3.38;;;2.80;;
42092;SDS011;28974;50.316;18.960;2023-07-20T11:36:31;8.40;;;3.10;;
42092;SDS011;28974;50.316;18.960;2023-07-20T11:48:31;15.35;;;3.42;;
42092;SDS011;28974;50.316;18.960;2023-07-20T12:00:35;7.75;;;3.20;;
42092;SDS011;28974;50.316;18.960;2023-07-20T12:12:42;7.55;;;3.08;;
42092;SDS011;28974;50.316;18.960;2023-07-20T12:24:43;8.68;;;3.25;;
42092;SDS011;28974;50.316;18.960;2023-07-20T12:36:43;4.63;;;2.90;;
42092;SDS011;28974;50.316;18.960;2023-07-20T12:48:43;9.35;;;2.72;;
42092;SDS011;28974;50.316;18.960;2023-07-20T13:00:44;16.58;;;3.50;;
42092;SDS011;28974;50.316;18.960;2023-07-20T13:12:44;7.18;;;3.20;;
42092;SDS011;28974;50.316;18.960;2023-07-20T13:24:45;5.32;;;2.60;;
42092;SDS011;28974;50.316;18.960;2023-07-20T13:36:49;7.35;;;2.38;;
42092;SDS011;28974;50.316;18.960;2023-07-20T13:48:49;5.65;;;2.58;;
42092;SDS011;28974;50.316;18.960;2023-07-20T14:00:50;4.70;;;2.08;;
42092;SDS011;28974;50.316;18.960;2023-07-20T14:12:50;11.45;;;2.38;;
42092;SDS011;28974;50.316;18.960;2023-07-20T14:24:51;9.90;;;2.08;;
42092;SDS011;28974;50.316;18.960;2023-07-20T14:36:51;34.90;;;3.83;;
42092;SDS011;28974;50.316;18.960;2023-07-20T14:48:52;5.93;;;1.70;;
42092;SDS011;28974;50.316;18.960;2023-07-20T15:00:52;3.15;;;1.90;;
42092;SDS011;28974;50.316;18.960;2023-07-20T15:12:53;4.65;;;1.70;;
42092;SDS011;28974;50.316;18.960;2023-07-20T15:24:53;2.42;;;1.80;;
42092;SDS011;28974;50.316;18.960;2023-07-20T15:36:53;17.23;;;2.75;;
42092;SDS011;28974;50.316;18.960;2023-07-20T15:48:54;8.10;;;2.13;;
42092;SDS011;28974;50.316;18.960;2023-07-20T16:00:55;5.93;;;1.92;;
42092;SDS011;28974;50.316;18.960;2023-07-20T16:12:56;15.45;;;2.58;;
42092;SDS011;28974;50.316;18.960;2023-07-20T16:24:56;3.45;;;2.30;;
42092;SDS011;28974;50.316;18.960;2023-07-20T16:36:56;2.65;;;2.00;;
42092;SDS011;28974;50.316;18.960;2023-07-20T16:48:57;6.68;;;2.17;;
42092;SDS011;28974;50.316;18.960;2023-07-20T17:01:02;4.55;;;2.60;;
42092;SDS011;28974;50.316;18.960;2023-07-20T17:13:04;5.18;;;2.08;;
42092;SDS011;28974;50.316;18.960;2023-07-20T17:25:05;9.30;;;2.00;;
42092;SDS011;28974;50.316;18.960;2023-07-20T17:37:06;6.10;;;1.80;;
42092;SDS011;28974;50.316;18.960;2023-07-20T17:49:06;4.88;;;3.15;;
42092;SDS011;28974;50.316;18.960;2023-07-20T18:01:06;8.02;;;2.80;;
42092;SDS011;28974;50.316;18.960;2023-07-20T18:13:07;8.05;;;3.95;;
42092;SDS011;28974;50.316;18.960;2023-07-20T18:25:07;9.55;;;4.03;;
42092;SDS011;28974;50.316;18.960;2023-07-20T18:37:08;5.47;;;3.33;;
42092;SDS011;28974;50.316;18.960;2023-07-20T18:49:08;13.13;;;3.33;;
42092;SDS011;28974;50.316;18.960;2023-07-20T19:01:08;7.80;;;3.40;;
42092;SDS011;28974;50.316;18.960;2023-07-20T19:13:09;10.57;;;3.17;;
42092;SDS011;28974;50.316;18.960;2023-07-20T19:25:09;13.60;;;4.18;;
42092;SDS011;28974;50.316;18.960;2023-07-20T19:37:11;12.90;;;5.03;;
42092;SDS011;28974;50.316;18.960;2023-07-20T19:49:12;18.90;;;4.13;;
42092;SDS011;28974;50.316;18.960;2023-07-20T20:01:12;12.98;;;4.97;;
42092;SDS011;28974;50.316;18.960;2023-07-20T20:13:13;9.18;;;3.90;;
42092;SDS011;28974;50.316;18.960;2023-07-20T20:25:13;8.70;;;4.70;;
42092;SDS011;28974;50.316;18.960;2023-07-20T20:37:14;14.05;;;5.25;;
42092;SDS011;28974;50.316;18.960;2023-07-20T20:49:14;17.05;;;6.03;;
42092;SDS011;28974;50.316;18.960;2023-07-20T21:01:15;10.13;;;5.70;;
42092;SDS011;28974;50.316;18.960;2023-07-20T21:13:15;14.82;;;5.45;;
42092;SDS011;28974;50.316;18.960;2023-07-20T21:25:15;16.33;;;5.22;;
42092;SDS011;28974;50.316;18.960;2023-07-20T21:37:16;10.52;;;4.93;;
42092;SDS011;28974;50.316;18.960;2023-07-20T21:49:16;16.67;;;6.30;;
42092;SDS011;28974;50.316;18.960;2023-07-20T22:01:17;24.15;;;7.38;;
42092;SDS011;28974;50.316;18.960;2023-07-20T22:13:17;10.77;;;6.63;;
42092;SDS011;28974;50.316;18.960;2023-07-20T22:25:19;14.27;;;7.18;;
42092;SDS011;28974;50.316;18.960;2023-07-20T22:37:20;18.13;;;7.23;;
42092;SDS011;28974;50.316;18.960;2023-07-20T22:49:20;11.77;;;6.80;;
42092;SDS011;28974;50.316;18.960;2023-07-20T23:01:21;10.68;;;6.22;;
42092;SDS011;28974;50.316;18.960;2023-07-20T23:13:21;11.63;;;6.68;;
42092;SDS011;28974;50.316;18.960;2023-07-20T23:25:24;11.77;;;7.25;;
42092;SDS011;28974;50.316;18.960;2023-07-20T23:37:25;21.98;;;8.73;;
42092;SDS011;28974;50.316;18.960;2023-07-20T23:49:26;14.50;;;7.03;;
